sensor_id;sensor_type;location;lat;lon;timestamp;pressure;altitude;pressure_sealevel;temperature;humidity
68634;BME280;55625;47.072;22.192;2022-09-20T00:01:25;99716.06;;;7.57;98.12
68634;BME280;55625;47.072;22.192;2022-09-20T00:03:55;99713.31;;;7.54;98.65
68634;BME280;55625;47.072;22.192;2022-09-20T00:06:27;99705.78;;;7.47;98.83
68634;BME280;55625;47.072;22.192;2022-09-20T00:08:54;99705.84;;;7.43;98.42
68634;BME280;55625;47.072;22.192;2022-09-20T00:11:25;99702.38;;;7.36;97.79
68634;BME280;55625;47.072;22.192;2022-09-20T00:13:54;99711.31;;;7.31;98.23
68634;BME280;55625;47.072;22.192;2022-09-20T00:16:33;99714.28;;;7.24;97.63
68634;BME280;55625;47.072;22.192;2022-09-20T00:19:01;99712.38;;;7.17;98.74
68634;BME280;55625;47.072;22.192;2022-09-20T00:21:31;99715.28;;;7.13;97.62
68634;BME280;55625;47.072;22.192;2022-09-20T00:23:57;99711.72;;;7.09;98.33
68634;BME280;55625;47.072;22.192;2022-09-20T00:26:26;99720.25;;;7.06;98.05
68634;BME280;55625;47.072;22.192;2022-09-20T00:28:52;99720.69;;;7.04;98.60
68634;BME280;55625;47.072;22.192;2022-09-20T00:31:19;99709.06;;;6.99;97.77
68634;BME280;55625;47.072;22.192;2022-09-20T00:33:45;99711.97;;;6.95;98.41
68634;BME280;55625;47.072;22.192;2022-09-20T00:36:30;99716.88;;;6.91;98.43
68634;BME280;55625;47.072;22.192;2022-09-20T00:38:58;99711.00;;;6.82;97.55
68634;BME280;55625;47.072;22.192;2022-09-20T00:41:25;99714.25;;;6.80;98.22
68634;BME280;55625;47.072;22.192;2022-09-20T00:43:51;99719.94;;;6.77;97.74
68634;BME280;55625;47.072;22.192;2022-09-20T00:46:43;99711.56;;;6.70;98.01
68634;BME280;55625;47.072;22.192;2022-09-20T00:49:21;99709.63;;;6.67;97.83
68634;BME280;55625;47.072;22.192;2022-09-20T00:51:58;99716.13;;;6.64;97.46
68634;BME280;55625;47.072;22.192;2022-09-20T00:54:26;99707.28;;;6.62;97.56
68634;BME280;55625;47.072;22.192;2022-09-20T00:56:53;99700.91;;;6.58;97.63
68634;BME280;55625;47.072;22.192;2022-09-20T00:59:31;99708.19;;;6.55;97.37
68634;BME280;55625;47.072;22.192;2022-09-20T01:02:22;99702.63;;;6.51;97.84
68634;BME280;55625;47.072;22.192;2022-09-20T01:04:50;99703.41;;;6.52;99.04
68634;BME280;55625;47.072;22.192;2022-09-20T01:07:19;99699.81;;;6.51;98.79
68634;BME280;55625;47.072;22.192;2022-09-20T01:09:47;99700.53;;;6.56;99.58
68634;BME280;55625;47.072;22.192;2022-09-20T01:12:19;99699.25;;;6.60;100.00
68634;BME280;55625;47.072;22.192;2022-09-20T01:14:48;99687.91;;;6.64;100.00
68634;BME280;55625;47.072;22.192;2022-09-20T01:17:18;99694.66;;;6.70;100.00
68634;BME280;55625;47.072;22.192;2022-09-20T01:23:14;99693.22;;;6.85;100.00
68634;BME280;55625;47.072;22.192;2022-09-20T01:29:16;99691.34;;;6.98;100.00
68634;BME280;55625;47.072;22.192;2022-09-20T01:31:51;99698.53;;;7.03;100.00
68634;BME280;55625;47.072;22.192;2022-09-20T01:34:28;99687.19;;;7.06;100.00
68634;BME280;55625;47.072;22.192;2022-09-20T01:40:02;99699.88;;;7.18;100.00
68634;BME280;55625;47.072;22.192;2022-09-20T01:42:37;99696.56;;;7.23;100.00
68634;BME280;55625;47.072;22.192;2022-09-20T01:45:26;99696.03;;;7.28;100.00
68634;BME280;55625;47.072;22.192;2022-09-20T01:48:37;99692.69;;;7.37;100.00
68634;BME280;55625;47.072;22.192;2022-09-20T02:00:37;99694.19;;;7.61;100.00
68634;BME280;55625;47.072;22.192;2022-09-20T02:12:57;99692.53;;;7.64;100.00
68634;BME280;55625;47.072;22.192;2022-09-20T02:28:43;99698.69;;;7.78;100.00
68634;BME280;55625;47.072;22.192;2022-09-20T02:31:42;99700.66;;;7.82;100.00
68634;BME280;55625;47.072;22.192;2022-09-20T02:43:55;99701.50;;;7.98;100.00
68634;BME280;55625;47.072;22.192;2022-09-20T02:49:33;99706.66;;;8.03;100.00
68634;BME280;55625;47.072;22.192;2022-09-20T02:52:15;99703.38;;;8.05;100.00
68634;BME280;55625;47.072;22.192;2022-09-20T02:55:10;99716.19;;;8.09;100.00
68634;BME280;55625;47.072;22.192;2022-09-20T03:00:24;99708.06;;;8.12;100.00
68634;BME280;55625;47.072;22.192;2022-09-20T03:09:31;99722.84;;;8.19;100.00
68634;BME280;55625;47.072;22.192;2022-09-20T03:27:40;99711.81;;;8.25;100.00
68634;BME280;55625;47.072;22.192;2022-09-20T03:30:35;99723.19;;;8.21;100.00
68634;BME280;55625;47.072;22.192;2022-09-20T03:39:14;99707.81;;;8.22;100.00
68634;BME280;55625;47.072;22.192;2022-09-20T03:48:09;99715.44;;;8.25;100.00
68634;BME280;55625;47.072;22.192;2022-09-20T03:51:12;99713.00;;;8.27;100.00
68634;BME280;55625;47.072;22.192;2022-09-20T03:54:21;99714.59;;;8.28;100.00
68634;BME280;55625;47.072;22.192;2022-09-20T03:57:28;99721.81;;;8.29;100.00
68634;BME280;55625;47.072;22.192;2022-09-20T04:00:21;99716.97;;;8.30;100.00
68634;BME280;55625;47.072;22.192;2022-09-20T04:09:28;99731.09;;;8.30;100.00
68634;BME280;55625;47.072;22.192;2022-09-20T04:16:02;99737.06;;;8.35;100.00
68634;BME280;55625;47.072;22.192;2022-09-20T04:24:43;99750.75;;;8.37;100.00
68634;BME280;55625;47.072;22.192;2022-09-20T04:27:29;99743.44;;;8.39;100.00
68634;BME280;55625;47.072;22.192;2022-09-20T04:30:24;99755.09;;;8.42;100.00
68634;BME280;55625;47.072;22.192;2022-09-20T04:33:10;99748.91;;;8.47;100.00
68634;BME280;55625;47.072;22.192;2022-09-20T05:05:32;99754.19;;;8.64;100.00
68634;BME280;55625;47.072;22.192;2022-09-20T05:11:55;99753.22;;;8.71;100.00
68634;BME280;55625;47.072;22.192;2022-09-20T05:14:59;99757.97;;;8.74;100.00
68634;BME280;55625;47.072;22.192;2022-09-20T05:17:49;99752.22;;;8.78;100.00
68634;BME280;55625;47.072;22.192;2022-09-20T05:26:26;99759.75;;;8.84;100.00
68634;BME280;55625;47.072;22.192;2022-09-20T05:38:39;99771.97;;;8.97;100.00
68634;BME280;55625;47.072;22.192;2022-09-20T05:41:53;99770.28;;;9.00;100.00
68634;BME280;55625;47.072;22.192;2022-09-20T05:56:33;99767.66;;;9.25;99.33
68634;BME280;55625;47.072;22.192;2022-09-20T06:02:37;99767.97;;;9.44;97.74
68634;BME280;55625;47.072;22.192;2022-09-20T06:05:16;99772.28;;;9.48;98.60
68634;BME280;55625;47.072;22.192;2022-09-20T06:13:58;99776.59;;;9.69;96.93
68634;BME280;55625;47.072;22.192;2022-09-20T06:19:40;99781.03;;;9.99;95.65
68634;BME280;55625;47.072;22.192;2022-09-20T06:22:26;99788.19;;;10.04;93.21
68634;BME280;55625;47.072;22.192;2022-09-20T06:27:54;99785.41;;;10.16;93.32
68634;BME280;55625;47.072;22.192;2022-09-20T06:30:30;99781.66;;;10.19;93.32
68634;BME280;55625;47.072;22.192;2022-09-20T06:35:50;99789.78;;;10.34;92.78
68634;BME280;55625;47.072;22.192;2022-09-20T06:41:42;99788.22;;;10.45;90.44
68634;BME280;55625;47.072;22.192;2022-09-20T06:44:09;99796.41;;;10.56;90.38
68634;BME280;55625;47.072;22.192;2022-09-20T06:46:35;99797.66;;;10.55;91.32
68634;BME280;55625;47.072;22.192;2022-09-20T06:49:02;99790.38;;;10.54;90.31
68634;BME280;55625;47.072;22.192;2022-09-20T06:51:35;99787.66;;;10.63;88.59
68634;BME280;55625;47.072;22.192;2022-09-20T06:54:02;99802.88;;;10.56;87.68
68634;BME280;55625;47.072;22.192;2022-09-20T06:56:31;99795.84;;;10.61;87.91
68634;BME280;55625;47.072;22.192;2022-09-20T06:59:02;99793.00;;;10.61;88.06
68634;BME280;55625;47.072;22.192;2022-09-20T07:01:28;99796.66;;;10.74;87.56
68634;BME280;55625;47.072;22.192;2022-09-20T07:03:54;99802.91;;;10.95;85.32
68634;BME280;55625;47.072;22.192;2022-09-20T07:06:20;99796.63;;;11.00;84.82
68634;BME280;55625;47.072;22.192;2022-09-20T07:08:46;99798.91;;;11.17;83.42
68634;BME280;55625;47.072;22.192;2022-09-20T07:11:15;99800.88;;;11.08;84.17
68634;BME280;55625;47.072;22.192;2022-09-20T07:13:42;99798.94;;;11.05;85.54
68634;BME280;55625;47.072;22.192;2022-09-20T07:16:12;99796.16;;;11.27;84.43
68634;BME280;55625;47.072;22.192;2022-09-20T07:18:41;99801.72;;;11.30;85.01
68634;BME280;55625;47.072;22.192;2022-09-20T07:21:15;99798.34;;;11.35;83.94
68634;BME280;55625;47.072;22.192;2022-09-20T07:23:42;99805.28;;;11.34;84.80
68634;BME280;55625;47.072;22.192;2022-09-20T07:26:27;99813.22;;;11.39;83.78
68634;BME280;55625;47.072;22.192;2022-09-20T07:28:54;99810.41;;;11.61;83.80
68634;BME280;55625;47.072;22.192;2022-09-20T07:31:23;99821.56;;;11.56;82.21
68634;BME280;55625;47.072;22.192;2022-09-20T07:33:49;99818.53;;;11.50;84.14
68634;BME280;55625;47.072;22.192;2022-09-20T07:36:16;99814.00;;;11.40;83.76
68634;BME280;55625;47.072;22.192;2022-09-20T07:38:47;99825.25;;;11.31;83.59
68634;BME280;55625;47.072;22.192;2022-09-20T07:41:13;99825.38;;;11.27;83.70
68634;BME280;55625;47.072;22.192;2022-09-20T07:43:39;99830.84;;;11.34;84.33
68634;BME280;55625;47.072;22.192;2022-09-20T07:46:05;99834.25;;;11.42;83.09
68634;BME280;55625;47.072;22.192;2022-09-20T07:48:34;99832.38;;;11.61;83.11
68634;BME280;55625;47.072;22.192;2022-09-20T07:51:07;99829.94;;;11.85;79.60
68634;BME280;55625;47.072;22.192;2022-09-20T07:53:33;99830.84;;;11.94;81.05
68634;BME280;55625;47.072;22.192;2022-09-20T07:58:33;99835.84;;;12.25;79.56
68634;BME280;55625;47.072;22.192;2022-09-20T08:01:06;99830.72;;;12.20;76.96
68634;BME280;55625;47.072;22.192;2022-09-20T08:03:33;99841.03;;;12.04;78.19
68634;BME280;55625;47.072;22.192;2022-09-20T08:06:07;99833.97;;;12.09;81.62
68634;BME280;55625;47.072;22.192;2022-09-20T08:08:39;99841.19;;;12.23;81.44
68634;BME280;55625;47.072;22.192;2022-09-20T08:11:10;99836.22;;;12.36;80.30
68634;BME280;55625;47.072;22.192;2022-09-20T08:13:48;99839.81;;;12.27;79.79
68634;BME280;55625;47.072;22.192;2022-09-20T08:16:15;99832.25;;;12.11;80.44
68634;BME280;55625;47.072;22.192;2022-09-20T08:18:46;99848.31;;;12.05;80.36
68634;BME280;55625;47.072;22.192;2022-09-20T08:21:14;99837.13;;;12.11;81.92
68634;BME280;55625;47.072;22.192;2022-09-20T08:23:43;99838.47;;;12.41;82.30
68634;BME280;55625;47.072;22.192;2022-09-20T08:26:13;99835.34;;;13.01;80.40
68634;BME280;55625;47.072;22.192;2022-09-20T08:28:41;99833.69;;;13.53;77.76
68634;BME280;55625;47.072;22.192;2022-09-20T08:31:11;99832.19;;;13.39;76.39
68634;BME280;55625;47.072;22.192;2022-09-20T08:33:38;99835.56;;;13.16;76.68
68634;BME280;55625;47.072;22.192;2022-09-20T08:36:05;99835.94;;;12.87;74.56
68634;BME280;55625;47.072;22.192;2022-09-20T08:38:32;99838.84;;;12.74;76.58
68634;BME280;55625;47.072;22.192;2022-09-20T08:41:28;99842.03;;;12.76;76.48
68634;BME280;55625;47.072;22.192;2022-09-20T08:44:29;99844.72;;;12.80;76.13
68634;BME280;55625;47.072;22.192;2022-09-20T08:47:24;99837.63;;;12.84;76.85
68634;BME280;55625;47.072;22.192;2022-09-20T08:49:52;99838.41;;;12.85;76.57
68634;BME280;55625;47.072;22.192;2022-09-20T08:52:29;99832.63;;;12.88;74.42
68634;BME280;55625;47.072;22.192;2022-09-20T08:54:56;99830.59;;;12.98;73.67
68634;BME280;55625;47.072;22.192;2022-09-20T08:57:27;99831.53;;;12.95;72.86
68634;BME280;55625;47.072;22.192;2022-09-20T08:59:58;99838.66;;;12.99;74.32
68634;BME280;55625;47.072;22.192;2022-09-20T09:02:24;99846.47;;;13.08;75.45
68634;BME280;55625;47.072;22.192;2022-09-20T09:04:50;99842.78;;;12.98;75.12
68634;BME280;55625;47.072;22.192;2022-09-20T09:07:19;99846.25;;;12.93;75.67
68634;BME280;55625;47.072;22.192;2022-09-20T09:09:49;99850.88;;;12.78;75.63
68634;BME280;55625;47.072;22.192;2022-09-20T09:12:28;99856.72;;;12.74;75.27
68634;BME280;55625;47.072;22.192;2022-09-20T09:15:19;99841.34;;;12.94;73.77
68634;BME280;55625;47.072;22.192;2022-09-20T09:17:46;99838.97;;;12.92;75.98
68634;BME280;55625;47.072;22.192;2022-09-20T09:20:19;99849.78;;;13.06;75.70
68634;BME280;55625;47.072;22.192;2022-09-20T09:23:03;99841.38;;;13.03;76.71
68634;BME280;55625;47.072;22.192;2022-09-20T09:25:31;99846.78;;;13.10;74.04
68634;BME280;55625;47.072;22.192;2022-09-20T09:30:42;99846.97;;;13.16;75.04
68634;BME280;55625;47.072;22.192;2022-09-20T09:36:05;99845.03;;;13.44;73.30
68634;BME280;55625;47.072;22.192;2022-09-20T09:38:35;99837.47;;;13.50;73.57
68634;BME280;55625;47.072;22.192;2022-09-20T09:41:30;99835.94;;;13.76;73.03
68634;BME280;55625;47.072;22.192;2022-09-20T09:46:46;99835.00;;;13.79;72.36
68634;BME280;55625;47.072;22.192;2022-09-20T09:49:30;99838.50;;;13.83;70.88
68634;BME280;55625;47.072;22.192;2022-09-20T09:52:16;99835.78;;;13.80;70.50
68634;BME280;55625;47.072;22.192;2022-09-20T09:54:53;99832.75;;;13.74;71.53
68634;BME280;55625;47.072;22.192;2022-09-20T10:00:14;99833.28;;;14.09;69.81
68634;BME280;55625;47.072;22.192;2022-09-20T10:06:01;99838.69;;;14.16;69.80
68634;BME280;55625;47.072;22.192;2022-09-20T10:11:59;99840.72;;;14.07;70.02
68634;BME280;55625;47.072;22.192;2022-09-20T10:24:13;99837.72;;;14.28;67.92
68634;BME280;55625;47.072;22.192;2022-09-20T10:30:07;99841.81;;;14.37;67.54
68634;BME280;55625;47.072;22.192;2022-09-20T10:32:57;99842.31;;;14.35;69.85
68634;BME280;55625;47.072;22.192;2022-09-20T10:36:13;99850.88;;;14.63;68.59
68634;BME280;55625;47.072;22.192;2022-09-20T10:41:45;99840.03;;;14.85;64.66
68634;BME280;55625;47.072;22.192;2022-09-20T10:48:02;99842.59;;;15.25;64.61
68634;BME280;55625;47.072;22.192;2022-09-20T10:50:46;99843.66;;;15.37;64.56
68634;BME280;55625;47.072;22.192;2022-09-20T10:56:37;99840.38;;;15.53;63.80
68634;BME280;55625;47.072;22.192;2022-09-20T11:05:07;99848.31;;;15.25;63.84
68634;BME280;55625;47.072;22.192;2022-09-20T11:08:00;99847.50;;;15.25;62.93
68634;BME280;55625;47.072;22.192;2022-09-20T11:10:47;99849.97;;;14.99;62.90
68634;BME280;55625;47.072;22.192;2022-09-20T11:16:26;99850.47;;;15.06;63.08
68634;BME280;55625;47.072;22.192;2022-09-20T11:21:55;99844.00;;;15.30;62.30
68634;BME280;55625;47.072;22.192;2022-09-20T11:24:40;99846.41;;;15.31;63.10
68634;BME280;55625;47.072;22.192;2022-09-20T11:27:21;99842.88;;;15.36;62.32
68634;BME280;55625;47.072;22.192;2022-09-20T11:30:01;99838.56;;;15.41;63.40
68634;BME280;55625;47.072;22.192;2022-09-20T11:37:39;99821.59;;;16.62;62.85
68634;BME280;55625;47.072;22.192;2022-09-20T11:40:32;99824.91;;;16.85;58.63
68634;BME280;55625;47.072;22.192;2022-09-20T11:43:03;99815.69;;;16.81;58.40
68634;BME280;55625;47.072;22.192;2022-09-20T11:45:31;99822.03;;;16.85;60.87
68634;BME280;55625;47.072;22.192;2022-09-20T11:48:24;99809.47;;;16.82;59.06
68634;BME280;55625;47.072;22.192;2022-09-20T11:54:56;99814.06;;;16.50;58.49
68634;BME280;55625;47.072;22.192;2022-09-20T11:57:15;99812.78;;;16.36;59.40
68634;BME280;55625;47.072;22.192;2022-09-20T11:59:51;99813.22;;;16.20;58.83
68634;BME280;55625;47.072;22.192;2022-09-20T12:02:49;99815.47;;;16.01;58.96
68634;BME280;55625;47.072;22.192;2022-09-20T12:05:35;99811.22;;;15.73;60.94
68634;BME280;55625;47.072;22.192;2022-09-20T12:08:21;99810.63;;;15.69;60.94
68634;BME280;55625;47.072;22.192;2022-09-20T12:11:06;99814.31;;;15.60;61.03
68634;BME280;55625;47.072;22.192;2022-09-20T12:13:36;99809.59;;;15.48;60.21
68634;BME280;55625;47.072;22.192;2022-09-20T12:16:15;99808.00;;;15.47;60.12
68634;BME280;55625;47.072;22.192;2022-09-20T12:21:20;99810.63;;;15.36;62.52
68634;BME280;55625;47.072;22.192;2022-09-20T12:29:00;99803.09;;;15.14;60.67
68634;BME280;55625;47.072;22.192;2022-09-20T12:36:43;99802.22;;;15.32;62.31
68634;BME280;55625;47.072;22.192;2022-09-20T12:47:06;99800.72;;;16.32;60.30
68634;BME280;55625;47.072;22.192;2022-09-20T12:58:49;99789.09;;;16.80;56.93
68634;BME280;55625;47.072;22.192;2022-09-20T13:03:48;99789.41;;;16.82;57.37
68634;BME280;55625;47.072;22.192;2022-09-20T13:09:03;99778.13;;;16.34;58.27
68634;BME280;55625;47.072;22.192;2022-09-20T13:11:49;99781.06;;;16.25;58.92
68634;BME280;55625;47.072;22.192;2022-09-20T13:14:30;99779.81;;;15.64;59.16
68634;BME280;55625;47.072;22.192;2022-09-20T13:17:11;99784.53;;;15.43;59.80
68634;BME280;55625;47.072;22.192;2022-09-20T13:19:45;99783.78;;;15.33;60.72
68634;BME280;55625;47.072;22.192;2022-09-20T13:22:44;99793.16;;;15.34;63.85
68634;BME280;55625;47.072;22.192;2022-09-20T13:25:16;99792.19;;;15.37;62.60
68634;BME280;55625;47.072;22.192;2022-09-20T13:28:08;99780.63;;;15.31;64.26
68634;BME280;55625;47.072;22.192;2022-09-20T13:30:35;99787.88;;;15.08;64.13
68634;BME280;55625;47.072;22.192;2022-09-20T13:33:24;99786.91;;;15.11;63.51
68634;BME280;55625;47.072;22.192;2022-09-20T13:35:55;99797.94;;;15.28;63.93
68634;BME280;55625;47.072;22.192;2022-09-20T13:38:27;99790.03;;;15.22;62.79
68634;BME280;55625;47.072;22.192;2022-09-20T13:41:08;99789.41;;;15.18;63.03
68634;BME280;55625;47.072;22.192;2022-09-20T13:43:43;99789.41;;;15.18;63.20
68634;BME280;55625;47.072;22.192;2022-09-20T13:46:29;99795.63;;;15.17;63.85
68634;BME280;55625;47.072;22.192;2022-09-20T13:51:35;99792.19;;;15.37;61.88
68634;BME280;55625;47.072;22.192;2022-09-20T13:56:43;99792.84;;;15.56;59.95
68634;BME280;55625;47.072;22.192;2022-09-20T13:59:10;99788.91;;;15.62;60.31
68634;BME280;55625;47.072;22.192;2022-09-20T14:01:53;99790.94;;;15.86;61.53
68634;BME280;55625;47.072;22.192;2022-09-20T14:04:22;99786.78;;;15.87;60.63
68634;BME280;55625;47.072;22.192;2022-09-20T14:06:51;99787.47;;;15.81;60.56
68634;BME280;55625;47.072;22.192;2022-09-20T14:09:32;99785.16;;;15.95;59.74
68634;BME280;55625;47.072;22.192;2022-09-20T14:11:59;99786.75;;;16.10;60.83
68634;BME280;55625;47.072;22.192;2022-09-20T14:14:25;99788.53;;;16.08;60.29
68634;BME280;55625;47.072;22.192;2022-09-20T14:16:55;99781.56;;;15.85;60.61
68634;BME280;55625;47.072;22.192;2022-09-20T14:19:30;99788.81;;;15.71;62.22
68634;BME280;55625;47.072;22.192;2022-09-20T14:22:04;99779.06;;;15.78;63.59
68634;BME280;55625;47.072;22.192;2022-09-20T14:24:33;99785.16;;;15.71;62.67
68634;BME280;55625;47.072;22.192;2022-09-20T14:27:15;99782.84;;;15.60;62.42
68634;BME280;55625;47.072;22.192;2022-09-20T14:29:52;99791.56;;;15.66;61.69
68634;BME280;55625;47.072;22.192;2022-09-20T14:35:04;99773.63;;;15.65;62.98
68634;BME280;55625;47.072;22.192;2022-09-20T14:37:49;99784.16;;;15.50;61.99
68634;BME280;55625;47.072;22.192;2022-09-20T14:40:30;99783.66;;;15.51;63.71
68634;BME280;55625;47.072;22.192;2022-09-20T14:43:03;99784.47;;;15.52;63.75
68634;BME280;55625;47.072;22.192;2022-09-20T14:45:33;99786.34;;;15.55;63.82
68634;BME280;55625;47.072;22.192;2022-09-20T14:50:44;99783.38;;;15.16;63.04
68634;BME280;55625;47.072;22.192;2022-09-20T14:56:07;99783.56;;;14.80;63.00
68634;BME280;55625;47.072;22.192;2022-09-20T14:59:23;99791.31;;;14.79;64.66
68634;BME280;55625;47.072;22.192;2022-09-20T15:02:01;99786.59;;;14.67;65.83
68634;BME280;55625;47.072;22.192;2022-09-20T15:04:28;99779.28;;;14.66;64.79
68634;BME280;55625;47.072;22.192;2022-09-20T15:07:00;99782.03;;;14.51;66.31
68634;BME280;55625;47.072;22.192;2022-09-20T15:09:27;99778.69;;;14.53;66.90
68634;BME280;55625;47.072;22.192;2022-09-20T15:14:27;99777.78;;;14.47;66.89
68634;BME280;55625;47.072;22.192;2022-09-20T15:16:55;99781.25;;;14.33;66.02
68634;BME280;55625;47.072;22.192;2022-09-20T15:19:24;99781.91;;;14.46;65.57
68634;BME280;55625;47.072;22.192;2022-09-20T15:21:50;99776.66;;;14.26;67.86
68634;BME280;55625;47.072;22.192;2022-09-20T15:24:17;99780.16;;;14.12;67.57
68634;BME280;55625;47.072;22.192;2022-09-20T15:26:45;99786.03;;;13.99;67.80
68634;BME280;55625;47.072;22.192;2022-09-20T15:29:17;99789.84;;;13.87;68.59
68634;BME280;55625;47.072;22.192;2022-09-20T15:31:45;99795.38;;;13.81;69.23
68634;BME280;55625;47.072;22.192;2022-09-20T15:34:13;99793.78;;;13.71;69.92
68634;BME280;55625;47.072;22.192;2022-09-20T15:36:40;99800.25;;;13.62;70.19
68634;BME280;55625;47.072;22.192;2022-09-20T15:39:07;99792.81;;;13.56;70.89
68634;BME280;55625;47.072;22.192;2022-09-20T15:41:34;99791.97;;;13.46;71.45
68634;BME280;55625;47.072;22.192;2022-09-20T15:44:04;99793.88;;;13.40;72.09
68634;BME280;55625;47.072;22.192;2022-09-20T15:46:32;99782.94;;;13.29;72.77
68634;BME280;55625;47.072;22.192;2022-09-20T15:49:02;99790.75;;;13.16;74.24
68634;BME280;55625;47.072;22.192;2022-09-20T15:51:29;99791.22;;;13.05;74.61
68634;BME280;55625;47.072;22.192;2022-09-20T15:53:59;99793.06;;;12.90;75.13
68634;BME280;55625;47.072;22.192;2022-09-20T15:56:31;99800.97;;;12.86;76.04
68634;BME280;55625;47.072;22.192;2022-09-20T15:59:00;99799.94;;;12.80;76.34
68634;BME280;55625;47.072;22.192;2022-09-20T16:01:32;99809.09;;;12.75;76.08
68634;BME280;55625;47.072;22.192;2022-09-20T16:03:59;99810.50;;;12.70;77.60
68634;BME280;55625;47.072;22.192;2022-09-20T16:06:25;99800.34;;;12.60;78.31
68634;BME280;55625;47.072;22.192;2022-09-20T16:08:51;99815.19;;;12.55;78.83
68634;BME280;55625;47.072;22.192;2022-09-20T16:11:20;99808.63;;;12.46;78.96
68634;BME280;55625;47.072;22.192;2022-09-20T16:13:52;99804.94;;;12.36;79.43
68634;BME280;55625;47.072;22.192;2022-09-20T16:16:18;99812.63;;;12.26;80.08
68634;BME280;55625;47.072;22.192;2022-09-20T16:18:44;99805.72;;;12.15;80.20
68634;BME280;55625;47.072;22.192;2022-09-20T16:21:29;99814.84;;;12.09;80.50
68634;BME280;55625;47.072;22.192;2022-09-20T16:23:56;99820.19;;;12.07;80.24
68634;BME280;55625;47.072;22.192;2022-09-20T16:26:25;99814.13;;;11.96;80.92
68634;BME280;55625;47.072;22.192;2022-09-20T16:28:52;99832.34;;;11.86;81.18
68634;BME280;55625;47.072;22.192;2022-09-20T16:31:44;99824.63;;;11.74;81.41
68634;BME280;55625;47.072;22.192;2022-09-20T16:34:24;99824.41;;;11.68;82.26
68634;BME280;55625;47.072;22.192;2022-09-20T16:36:59;99827.13;;;11.59;81.92
68634;BME280;55625;47.072;22.192;2022-09-20T16:39:27;99828.97;;;11.53;82.53
68634;BME280;55625;47.072;22.192;2022-09-20T16:41:56;99838.22;;;11.44;83.54
68634;BME280;55625;47.072;22.192;2022-09-20T16:44:23;99835.28;;;11.35;83.68
68634;BME280;55625;47.072;22.192;2022-09-20T16:46:49;99836.28;;;11.29;84.69
68634;BME280;55625;47.072;22.192;2022-09-20T16:49:15;99853.09;;;11.23;84.28
68634;BME280;55625;47.072;22.192;2022-09-20T16:51:43;99849.38;;;11.13;85.04
68634;BME280;55625;47.072;22.192;2022-09-20T16:54:14;99857.00;;;11.04;85.57
68634;BME280;55625;47.072;22.192;2022-09-20T16:56:46;99853.66;;;10.93;85.77
68634;BME280;55625;47.072;22.192;2022-09-20T16:59:15;99853.56;;;10.83;85.82
68634;BME280;55625;47.072;22.192;2022-09-20T17:01:42;99853.78;;;10.76;86.36
68634;BME280;55625;47.072;22.192;2022-09-20T17:04:09;99864.44;;;10.72;87.27
68634;BME280;55625;47.072;22.192;2022-09-20T17:06:37;99857.97;;;10.72;87.76
68634;BME280;55625;47.072;22.192;2022-09-20T17:09:04;99857.16;;;10.71;87.77
68634;BME280;55625;47.072;22.192;2022-09-20T17:11:37;99866.03;;;10.73;88.40
68634;BME280;55625;47.072;22.192;2022-09-20T17:14:04;99872.41;;;10.77;88.15
68634;BME280;55625;47.072;22.192;2022-09-20T17:16:34;99865.81;;;10.80;87.85
68634;BME280;55625;47.072;22.192;2022-09-20T17:19:03;99868.19;;;10.82;86.81
68634;BME280;55625;47.072;22.192;2022-09-20T17:21:35;99869.00;;;10.82;86.55
68634;BME280;55625;47.072;22.192;2022-09-20T17:24:03;99874.66;;;10.82;85.64
68634;BME280;55625;47.072;22.192;2022-09-20T17:26:38;99866.16;;;10.82;85.81
68634;BME280;55625;47.072;22.192;2022-09-20T17:29:07;99871.16;;;10.78;85.21
68634;BME280;55625;47.072;22.192;2022-09-20T17:31:41;99868.31;;;10.78;85.34
68634;BME280;55625;47.072;22.192;2022-09-20T17:34:09;99872.41;;;10.77;85.51
68634;BME280;55625;47.072;22.192;2022-09-20T17:36:42;99870.13;;;10.72;85.46
68634;BME280;55625;47.072;22.192;2022-09-20T17:39:09;99878.25;;;10.70;85.87
68634;BME280;55625;47.072;22.192;2022-09-20T17:41:38;99872.34;;;10.65;85.49
68634;BME280;55625;47.072;22.192;2022-09-20T17:44:04;99880.75;;;10.68;85.83
68634;BME280;55625;47.072;22.192;2022-09-20T17:46:34;99883.94;;;10.70;85.70
68634;BME280;55625;47.072;22.192;2022-09-20T17:49:05;99883.59;;;10.68;85.24
68634;BME280;55625;47.072;22.192;2022-09-20T17:51:53;99889.63;;;10.70;85.15
68634;BME280;55625;47.072;22.192;2022-09-20T17:54:20;99893.69;;;10.69;84.67
68634;BME280;55625;47.072;22.192;2022-09-20T17:56:49;99890.00;;;10.72;84.46
68634;BME280;55625;47.072;22.192;2022-09-20T17:59:17;99885.97;;;10.70;84.63
68634;BME280;55625;47.072;22.192;2022-09-20T18:01:47;99905.78;;;10.73;84.07
68634;BME280;55625;47.072;22.192;2022-09-20T18:04:14;99902.81;;;10.77;84.43
68634;BME280;55625;47.072;22.192;2022-09-20T18:06:45;99905.66;;;10.77;83.96
68634;BME280;55625;47.072;22.192;2022-09-20T18:09:19;99904.88;;;10.76;84.08
68634;BME280;55625;47.072;22.192;2022-09-20T18:11:48;99906.22;;;10.72;84.95
68634;BME280;55625;47.072;22.192;2022-09-20T18:14:21;99913.50;;;10.73;85.40
68634;BME280;55625;47.072;22.192;2022-09-20T18:16:55;99920.41;;;10.72;85.71
68634;BME280;55625;47.072;22.192;2022-09-20T18:19:22;99923.44;;;10.65;87.19
68634;BME280;55625;47.072;22.192;2022-09-20T18:21:49;99919.56;;;10.58;87.88
68634;BME280;55625;47.072;22.192;2022-09-20T18:24:15;99916.50;;;10.53;88.05
68634;BME280;55625;47.072;22.192;2022-09-20T18:26:40;99922.81;;;10.44;88.22
68634;BME280;55625;47.072;22.192;2022-09-20T18:29:12;99914.47;;;10.37;89.17
68634;BME280;55625;47.072;22.192;2022-09-20T18:34:26;99914.44;;;10.24;89.28
68634;BME280;55625;47.072;22.192;2022-09-20T18:36:57;99913.03;;;10.16;89.66